Cleveland, NC (27013)

10:53 PM EDT on August 22, 2014 (GMT -0400)
Brookmeade - Statesville Country Club | Change Station
CLOSE
Current Station
Personal Weather Station
Location: Statesville, NC
Elevation: 858 ft
Nearby Weather Stations
Active Advisory: Special Statement

Elev 858 ft 35.80 °N, 80.81 °W | Updated 13 minutes ago

Heavy Rain
Heavy Rain
79.9 °F
Feels Like 85 °F
N
0.0
Wind Variable Wind from ESE
Gusts 0.0 mph

Today
High -- | Low -- °F
--% Chance of Precip.
Yesterday
High -- | Low -- °F
Precip. -- in
6:47 AM 8:03 PM
Waning Crescent, 5% visible
Pressure 30.00 in
Visibility 7.0 miles
Clouds Mostly Cloudy 5000 ft
Overcast 7000 ft
Heat Index 85 °F
Dew Point 76 °F
Humidity 87%
Rainfall 0.00 in
Snow Depth Not available.
UV 0 out of 12
Pollen 9.00 out of 12
Ozone Good
PM2.5 Moderate
Flu Activity Not available.
METAR KRUQ 230235Z AUTO 06008G16KT 7SM +RA BKN050 OVC070 25/22 A3000 RMK AO2 P0004 T02490218

More Conditions Fewer Conditions

Pressure 30.00 in
Visibility 7.0 miles
Clouds Mostly Cloudy 5000 ft
Overcast 7000 ft
Heat Index 85 °F
Dew Point 76 °F
Humidity 87%
Rainfall 0.00 in
Snow Depth Not available.
UV 0 out of 12
Pollen 9.00 out of 12
Ozone Good
PM2.5 Moderate
Flu Activity Not available.
METAR KRUQ 230235Z AUTO 06008G16KT 7SM +RA BKN050 OVC070 25/22 A3000 RMK AO2 P0004 T02490218

More Conditions Fewer Conditions

10-Day Weather Forecast

Almanac

Astronomy

Aug. 22, 2014 Rise Set
Actual Time 6:47 AM EDT 8:03 PM EDT
Civil Twilight 6:20 AM EDT 8:30 PM EDT
Nautical Twilight 5:48 AM EDT 9:01 PM EDT
Astronomical Twilight 5:15 AM EDT 9:34 PM EDT
Moon 4:10 AM EDT (8/22) 6:09 PM EDT (8/22)
Length of Visible Light 14h 09m
Length of Day
13h 16m
Tomorrow will be 2m 5s shorter.
Waning Crescent, 5% of the Moon is Illuminated
Today
Waning Crescent
Aug 25
New
Sep 2
First Quarter
Sep 8
Full
Sep 15
Last Quarter

Today's Extremes

State Highs State Lows

Community

WunderPhotos

Upload Photos

1,746,348 photos uploaded!

WunderBlogs® & News

Nearby

Air Quality

  Air Quality AQ Index Pollutant
Yesterday Moderate
OZONE
Yesterday Moderate
PM2.5
Current Moderate
PM2.5
Current Good
OZONE
Friday Moderate
OZONE
Friday Good
PM2.5
Saturday Good
PM2.5
Saturday Good
OZONE
Sunday Good
OZONE
Sunday Good
PM2.5
Monday Good
OZONE
Monday Good
PM2.5

Snow Depth

Station Depth Elevation
No new snow has been reported.

Earthquake Activity

City Distance Mag. Time & Date
No recent earthquake activity has been reported nearby.
Minimum magnitude displayed is 2.5.

Coastal Water Temperatures

Place Temperature
No Stations Reporting

Nearby Weather Stations